PWSweather.com
Personal Weather Stations
Station Observations
PLIWOJE121
HaczowPL 36-213

HaczowPL 36-213

Lat: 49.66759829999999, Lon: 21.890613799999983

Elevation: 9

Station Type: WH1080

Latest ConditionsUpdated 4:20:00 AM GMT+01:01 Friday, Apr 19, 2019
Currently Today's Max Today's Min Today's Average
Temperature 37.6°F3.1°C 44.6°F7.0°C 37.4°F3.0°C 40.7°F4.8°C
Dew Point 29.7°F-1.3°C 33.2°F0.7°C 29.2°F-1.6°C 31.3°F-0.4°C
Winds 3.0 mph NW4.8 kmh NW 6.2 mph -10.0 kmh - - 2.6 mph 4.2 kmh
Wind Gusts 4.5 mph7.2 kmh 6.9 mph11.1 kmh - -
Humidity 73% 73% 62% 69%
Pressure 30.45 in1031.2 mb 30.48 in1032.2 mb 30.45 in1031.2 mb -
Hour Temp Dew Point Humidity Winds Wind Gusts Pressure Precip Precip Rate Daily Precip Total
04:20 AM 37.6°F3.1°C 29.7°F-1.3°C 73% 3.0 mph NW4.8 kmh NW 4.5 mph7.2 kmh 30.45 in1031.2 mb 0.00 in0.0 mm 0.00 in0.0 mm 0.00 in0.0 mm
04:15 AM 37.4°F3.0°C 29.2°F-1.6°C 72% 2.2 mph W3.5 kmh W 3.1 mph5.0 kmh 30.46 in1031.5 mb 0.00 in0.0 mm 0.00 in0.0 mm 0.00 in0.0 mm
04:10 AM 37.9°F3.3°C 30.1°F-1.1°C 73% 2.4 mph WNW3.9 kmh WNW 3.8 mph6.1 kmh 30.45 in1031.2 mb 0.00 in0.0 mm 0.00 in0.0 mm 0.00 in0.0 mm
04:05 AM 38.5°F3.6°C 30.6°F-0.8°C 73% 3.0 mph NW4.8 kmh NW 5.4 mph8.7 kmh 30.45 in1031.2 mb 0.00 in0.0 mm 0.00 in0.0 mm 0.00 in0.0 mm
04:00 AM 38.3°F3.5°C 30.4°F-0.9°C 73% 3.3 mph WNW5.3 kmh WNW 5.4 mph8.7 kmh 30.45 in1031.2 mb 0.00 in0.0 mm 0.00 in0.0 mm 0.00 in0.0 mm
03:55 AM 37.9°F3.3°C 29.7°F-1.3°C 72% 4.1 mph WNW6.6 kmh WNW 5.4 mph8.7 kmh 30.45 in1031.2 mb 0.00 in0.0 mm 0.00 in0.0 mm 0.00 in0.0 mm
03:50 AM 38.3°F3.5°C 30.1°F-1.1°C 72% 3.6 mph NW5.8 kmh NW 5.4 mph8.7 kmh 30.45 in1031.2 mb 0.00 in0.0 mm 0.00 in0.0 mm 0.00 in0.0 mm
03:45 AM 37.4°F3.0°C 29.2°F-1.6°C 72% 2.0 mph WNW3.2 kmh WNW 4.5 mph7.2 kmh 30.45 in1031.2 mb 0.00 in0.0 mm 0.00 in0.0 mm 0.00 in0.0 mm
03:40 AM 37.6°F3.1°C 29.4°F-1.4°C 72% 1.6 mph W2.6 kmh W 3.1 mph5.0 kmh 30.46 in1031.5 mb 0.00 in0.0 mm 0.00 in0.0 mm 0.00 in0.0 mm
03:35 AM 38.8°F3.8°C 30.6°F-0.8°C 72% 2.6 mph NW4.2 kmh NW 4.5 mph7.2 kmh 30.45 in1031.2 mb 0.00 in0.0 mm 0.00 in0.0 mm 0.00 in0.0 mm
03:30 AM 39.0°F3.9°C 30.8°F-0.7°C 72% 2.9 mph NW4.7 kmh NW 4.5 mph7.2 kmh 30.45 in1031.2 mb 0.00 in0.0 mm 0.00 in0.0 mm 0.00 in0.0 mm
03:25 AM 38.8°F3.8°C 30.6°F-0.8°C 72% 2.8 mph NW4.5 kmh NW 4.5 mph7.2 kmh 30.45 in1031.2 mb 0.00 in0.0 mm 0.00 in0.0 mm 0.00 in0.0 mm
03:20 AM 38.5°F3.6°C 30.2°F-1.0°C 72% 3.3 mph NW5.3 kmh NW 4.5 mph7.2 kmh 30.46 in1031.5 mb 0.00 in0.0 mm 0.00 in0.0 mm 0.00 in0.0 mm
03:15 AM 38.5°F3.6°C 30.2°F-1.0°C 72% 4.5 mph NW7.2 kmh NW 6.0 mph9.7 kmh 30.46 in1031.5 mb 0.00 in0.0 mm 0.00 in0.0 mm 0.00 in0.0 mm
03:10 AM 39.2°F4.0°C 30.6°F-0.8°C 71% 6.0 mph NW9.7 kmh NW 6.9 mph11.1 kmh 30.46 in1031.5 mb 0.00 in0.0 mm 0.00 in0.0 mm 0.00 in0.0 mm
03:05 AM 39.4°F4.1°C 30.8°F-0.7°C 71% 6.2 mph NW10.0 kmh NW 6.9 mph11.1 kmh 30.45 in1031.2 mb 0.00 in0.0 mm 0.00 in0.0 mm 0.00 in0.0 mm
03:00 AM 39.7°F4.3°C 31.1°F-0.5°C 71% 5.3 mph WNW8.5 kmh WNW 6.0 mph9.7 kmh 30.45 in1031.2 mb 0.00 in0.0 mm 0.00 in0.0 mm 0.00 in0.0 mm
02:55 AM 40.5°F4.7°C 31.8°F-0.1°C 71% 4.7 mph NW7.6 kmh NW 5.4 mph8.7 kmh 30.45 in1031.2 mb 0.00 in0.0 mm 0.00 in0.0 mm 0.00 in0.0 mm
02:50 AM 40.8°F4.9°C 32.1°F0.1°C 71% 3.7 mph NW6.0 kmh NW 5.4 mph8.7 kmh 30.46 in1031.5 mb 0.00 in0.0 mm 0.00 in0.0 mm 0.00 in0.0 mm
02:45 AM 41.0°F5.0°C 31.6°F-0.2°C 69% 2.6 mph NW4.2 kmh NW 3.8 mph6.1 kmh 30.46 in1031.5 mb 0.00 in0.0 mm 0.00 in0.0 mm 0.00 in0.0 mm
02:40 AM 41.2°F5.1°C 31.8°F-0.1°C 69% 2.3 mph NW3.7 kmh NW 3.1 mph5.0 kmh 30.46 in1031.5 mb 0.00 in0.0 mm 0.00 in0.0 mm 0.00 in0.0 mm
02:35 AM 41.4°F5.2°C 31.9°F-0.1°C 69% 2.3 mph NW3.7 kmh NW 3.1 mph5.0 kmh 30.46 in1031.5 mb 0.00 in0.0 mm 0.00 in0.0 mm 0.00 in0.0 mm
02:30 AM 41.4°F5.2°C 31.9°F-0.1°C 69% 2.1 mph NW3.4 kmh NW 3.1 mph5.0 kmh 30.46 in1031.5 mb 0.00 in0.0 mm 0.00 in0.0 mm 0.00 in0.0 mm
02:25 AM 41.4°F5.2°C 31.9°F-0.1°C 69% 1.7 mph NW2.7 kmh NW 2.2 mph3.5 kmh 30.46 in1031.5 mb 0.00 in0.0 mm 0.00 in0.0 mm 0.00 in0.0 mm
02:20 AM 41.5°F5.3°C 32.1°F0.1°C 69% 1.7 mph NW2.7 kmh NW 2.2 mph3.5 kmh 30.46 in1031.5 mb 0.00 in0.0 mm 0.00 in0.0 mm 0.00 in0.0 mm
02:15 AM 41.5°F5.3°C 32.1°F0.1°C 69% 1.8 mph NW2.9 kmh NW 2.2 mph3.5 kmh 30.46 in1031.5 mb 0.00 in0.0 mm 0.00 in0.0 mm 0.00 in0.0 mm
02:10 AM 41.7°F5.4°C 32.3°F0.2°C 69% 2.1 mph NW3.4 kmh NW 3.8 mph6.1 kmh 30.46 in1031.5 mb 0.00 in0.0 mm 0.00 in0.0 mm 0.00 in0.0 mm
02:05 AM 41.7°F5.4°C 32.3°F0.2°C 69% 2.5 mph NW4.0 kmh NW 3.8 mph6.1 kmh 30.46 in1031.5 mb 0.00 in0.0 mm 0.00 in0.0 mm 0.00 in0.0 mm
02:00 AM 41.7°F5.4°C 32.3°F0.2°C 69% 2.4 mph NW3.9 kmh NW 3.8 mph6.1 kmh 30.46 in1031.5 mb 0.00 in0.0 mm 0.00 in0.0 mm 0.00 in0.0 mm
01:55 AM 41.9°F5.5°C 32.5°F0.3°C 69% 2.1 mph NW3.4 kmh NW 2.2 mph3.5 kmh 30.47 in1031.8 mb 0.00 in0.0 mm 0.00 in0.0 mm 0.00 in0.0 mm
01:50 AM 41.9°F5.5°C 32.5°F0.3°C 69% 1.8 mph NW2.9 kmh NW 2.2 mph3.5 kmh 30.47 in1031.8 mb 0.00 in0.0 mm 0.00 in0.0 mm 0.00 in0.0 mm
01:45 AM 42.1°F5.6°C 32.6°F0.3°C 69% 1.9 mph NW3.1 kmh NW 2.2 mph3.5 kmh 30.46 in1031.5 mb 0.00 in0.0 mm 0.00 in0.0 mm 0.00 in0.0 mm
01:40 AM 42.3°F5.7°C 32.8°F0.4°C 69% 2.4 mph NW3.9 kmh NW 3.1 mph5.0 kmh 30.46 in1031.5 mb 0.00 in0.0 mm 0.00 in0.0 mm 0.00 in0.0 mm
01:35 AM 42.3°F5.7°C 32.8°F0.4°C 69% 2.4 mph NW3.9 kmh NW 3.1 mph5.0 kmh 30.47 in1031.8 mb 0.00 in0.0 mm 0.00 in0.0 mm 0.00 in0.0 mm
01:30 AM 42.3°F5.7°C 33.2°F0.7°C 70% 2.7 mph NW4.3 kmh NW 3.8 mph6.1 kmh 30.46 in1031.5 mb 0.00 in0.0 mm 0.00 in0.0 mm 0.00 in0.0 mm
01:25 AM 42.1°F5.6°C 33.0°F0.6°C 70% 3.1 mph NW5.0 kmh NW 3.8 mph6.1 kmh 30.47 in1031.8 mb 0.00 in0.0 mm 0.00 in0.0 mm 0.00 in0.0 mm
01:20 AM 41.5°F5.3°C 32.5°F0.3°C 70% 3.1 mph NW5.0 kmh NW 3.8 mph6.1 kmh 30.46 in1031.5 mb 0.00 in0.0 mm 0.00 in0.0 mm 0.00 in0.0 mm
01:15 AM 40.8°F4.9°C 32.1°F0.1°C 71% 2.5 mph NW4.0 kmh NW 3.8 mph6.1 kmh 30.46 in1031.5 mb 0.00 in0.0 mm 0.00 in0.0 mm 0.00 in0.0 mm
01:10 AM 39.2°F4.0°C 30.2°F-1.0°C 70% 1.0 mph NW1.6 kmh NW 3.8 mph6.1 kmh 30.47 in1031.8 mb 0.00 in0.0 mm 0.00 in0.0 mm 0.00 in0.0 mm
01:05 AM 38.7°F3.7°C 29.7°F-1.3°C 70% Calm Calm -- 30.47 in1031.8 mb 0.00 in0.0 mm 0.00 in0.0 mm 0.00 in0.0 mm
01:00 AM 38.7°F3.7°C 29.7°F-1.3°C 70% 0.2 mph E0.3 kmh E 1.6 mph2.6 kmh 30.47 in1031.8 mb 0.00 in0.0 mm 0.00 in0.0 mm 0.00 in0.0 mm
12:55 AM 39.2°F4.0°C 29.5°F-1.4°C 68% 0.4 mph E0.6 kmh E 1.6 mph2.6 kmh 30.47 in1031.8 mb 0.00 in0.0 mm 0.00 in0.0 mm 0.00 in0.0 mm
12:50 AM 39.7°F4.3°C 29.7°F-1.3°C 67% 0.7 mph E1.1 kmh E 2.2 mph3.5 kmh 30.47 in1031.8 mb 0.00 in0.0 mm 0.00 in0.0 mm 0.00 in0.0 mm
12:45 AM 40.8°F4.9°C 30.3°F-0.9°C 66% 1.3 mph SE2.1 kmh SE 2.2 mph3.5 kmh 30.47 in1031.8 mb 0.00 in0.0 mm 0.00 in0.0 mm 0.00 in0.0 mm
12:40 AM 42.4°F5.8°C 30.7°F-0.7°C 63% 1.7 mph S2.7 kmh S 2.2 mph3.5 kmh 30.48 in1032.2 mb 0.00 in0.0 mm 0.00 in0.0 mm 0.00 in0.0 mm
12:35 AM 44.2°F6.8°C 32.8°F0.4°C 64% 1.8 mph NW2.9 kmh NW 2.2 mph3.5 kmh 30.47 in1031.8 mb 0.00 in0.0 mm 0.00 in0.0 mm 0.00 in0.0 mm
12:30 AM 44.4°F6.9°C 33.0°F0.6°C 64% 2.2 mph NW3.5 kmh NW 3.1 mph5.0 kmh 30.47 in1031.8 mb 0.00 in0.0 mm 0.00 in0.0 mm 0.00 in0.0 mm
12:25 AM 44.4°F6.9°C 33.0°F0.6°C 64% 2.9 mph NW4.7 kmh NW 3.1 mph5.0 kmh 30.47 in1031.8 mb 0.00 in0.0 mm 0.00 in0.0 mm 0.00 in0.0 mm
12:20 AM 44.2°F6.8°C 32.8°F0.4°C 64% 3.2 mph NW5.1 kmh NW 3.8 mph6.1 kmh 30.48 in1032.2 mb 0.00 in0.0 mm 0.00 in0.0 mm 0.00 in0.0 mm
12:15 AM 43.5°F6.4°C 32.5°F0.3°C 65% 2.9 mph NW4.7 kmh NW 3.8 mph6.1 kmh 30.48 in1032.2 mb 0.00 in0.0 mm 0.00 in0.0 mm 0.00 in0.0 mm
12:10 AM 42.8°F6.0°C 31.5°F-0.3°C 64% 2.8 mph WNW4.5 kmh WNW 3.8 mph6.1 kmh 30.48 in1032.2 mb 0.00 in0.0 mm 0.00 in0.0 mm 0.00 in0.0 mm
12:05 AM 42.8°F6.0°C 30.7°F-0.7°C 62% 3.4 mph WNW5.5 kmh WNW 4.5 mph7.2 kmh 30.48 in1032.2 mb 0.00 in0.0 mm 0.00 in0.0 mm 0.00 in0.0 mm
12:00 AM 44.6°F7.0°C 32.4°F0.2°C 62% 3.9 mph WNW6.3 kmh WNW 4.5 mph7.2 kmh 30.47 in1031.8 mb 0.00 in0.0 mm 0.00 in0.0 mm 0.00 in0.0 mm